Time;durP1;ratioP1;P1;durP2;ratioP2;P2;SDS_P1;SDS_P2;PMS_P1;PMS_P2;Temp;Humidity;BMP_temperature;BMP_pressure;BME280_temperature;BME280_humidity;BME280_pressure;Samples;Min_cycle;Max_cycle;Signal;HPM_P1;HPM_P2
2022/10/29 03:01:05;;;;;;;16.85;6.43;;;13.30;99.90;;;;;;5880492;23;88990;-82
2022/10/29 03:03:31;;;;;;;16.15;6.18;;;13.20;99.90;;;;;;4881443;28;87995;-79
2022/10/29 03:05:57;;;;;;;17.67;6.65;;;13.20;99.90;;;;;;4877719;28;86938;-78
2022/10/29 03:08:23;;;;;;;14.65;6.30;;;13.20;99.90;;;;;;4888078;28;87381;-80
2022/10/29 03:10:48;;;;;;;19.35;7.53;;;13.10;99.90;;;;;;4878311;28;87273;-79
2022/10/29 03:13:14;;;;;;;18.85;6.88;;;13.10;99.90;;;;;;4876705;28;85566;-81
2022/10/29 03:15:43;;;;;;;19.27;6.88;;;13.00;99.90;;;;;;4881824;28;87881;-79
2022/10/29 03:18:09;;;;;;;14.48;7.78;;;13.10;99.90;;;;;;4874175;28;86994;-81
2022/10/29 03:20:34;;;;;;;13.85;6.07;;;13.10;99.90;;;;;;4882855;28;87210;-80
2022/10/29 03:23:00;;;;;;;15.45;7.40;;;13.00;99.90;;;;;;4897047;28;86377;-80
2022/10/29 03:25:25;;;;;;;20.58;6.78;;;13.00;99.90;;;;;;4886828;28;87006;-81
2022/10/29 03:27:51;;;;;;;17.92;7.55;;;13.00;99.90;;;;;;4886780;28;87132;-80
2022/10/29 03:30:17;;;;;;;21.35;8.30;;;13.00;99.90;;;;;;4886707;28;87183;-79
2022/10/29 03:32:44;;;;;;;16.38;7.15;;;13.00;99.90;;;;;;4886556;28;86759;-79
2022/10/29 03:35:12;;;;;;;15.15;7.55;;;13.00;99.90;;;;;;4880014;28;86805;-80
2022/10/29 03:37:38;;;;;;;15.20;7.70;;;12.90;99.90;;;;;;4869405;28;87526;-79
2022/10/29 03:40:05;;;;;;;19.42;7.38;;;13.00;99.90;;;;;;4878965;28;86614;-81
2022/10/29 03:42:30;;;;;;;17.38;7.53;;;13.00;99.90;;;;;;4885632;28;86318;-82
2022/10/29 03:45:00;;;;;;;16.65;7.68;;;12.90;99.90;;;;;;4881624;28;87827;-82
2022/10/29 03:47:27;;;;;;;15.70;8.25;;;12.90;99.90;;;;;;4886290;28;88546;-82
2022/10/29 03:49:53;;;;;;;16.30;7.85;;;12.90;99.90;;;;;;4886299;28;86850;-82
2022/10/29 03:52:19;;;;;;;18.60;9.00;;;13.00;99.90;;;;;;4875486;28;87008;-83
2022/10/29 03:54:45;;;;;;;17.70;9.55;;;12.90;99.90;;;;;;4871902;28;90976;-81
2022/10/29 03:57:11;;;;;;;16.98;8.00;;;12.90;99.90;;;;;;4884961;28;87161;-82
2022/10/29 03:59:37;;;;;;;15.35;8.07;;;13.00;99.90;;;;;;4886922;28;86788;-83
2022/10/29 04:02:02;;;;;;;19.20;8.70;;;13.00;99.90;;;;;;4884229;28;86100;-82
2022/10/29 04:04:28;;;;;;;17.23;7.75;;;12.90;99.90;;;;;;4883524;28;90851;-81
2022/10/29 04:06:53;;;;;;;21.38;8.60;;;13.00;99.90;;;;;;4877100;28;87333;-81
2022/10/29 04:09:19;;;;;;;16.67;7.13;;;13.00;99.90;;;;;;4878584;28;87184;-82
2022/10/29 04:11:45;;;;;;;19.52;7.20;;;13.00;99.90;;;;;;4877650;28;87173;-82
2022/10/29 04:14:10;;;;;;;21.23;8.55;;;13.10;99.90;;;;;;4867072;29;87357;-80
2022/10/29 04:16:36;;;;;;;19.20;8.43;;;13.10;99.90;;;;;;4870333;28;86913;-80
2022/10/29 04:19:02;;;;;;;15.18;6.25;;;13.10;99.90;;;;;;4892257;28;87127;-81
2022/10/29 04:21:28;;;;;;;22.45;7.70;;;13.10;99.90;;;;;;4886075;28;86190;-81
2022/10/29 04:23:54;;;;;;;13.68;7.68;;;13.10;99.90;;;;;;4885843;28;87336;-82
2022/10/29 04:26:19;;;;;;;16.90;7.75;;;13.20;99.90;;;;;;4873662;28;86050;-81
2022/10/29 04:28:49;;;;;;;17.35;7.75;;;13.20;99.90;;;;;;4885992;28;86195;-80
2022/10/29 04:31:15;;;;;;;17.85;7.85;;;13.20;99.90;;;;;;4885261;28;88054;-80
2022/10/29 04:33:41;;;;;;;16.38;8.27;;;13.20;99.90;;;;;;4898223;28;88818;-81
2022/10/29 04:36:07;;;;;;;18.42;7.13;;;13.30;99.90;;;;;;4890976;28;88079;-81
2022/10/29 04:38:32;;;;;;;23.30;8.63;;;13.30;99.90;;;;;;4885896;28;86646;-81
2022/10/29 04:40:59;;;;;;;21.92;8.07;;;13.30;99.90;;;;;;4886096;28;86187;-80
2022/10/29 04:43:26;;;;;;;23.90;9.57;;;13.30;99.90;;;;;;4881835;28;87273;-82
2022/10/29 04:45:52;;;;;;;23.48;9.00;;;13.30;99.90;;;;;;4880639;28;87474;-83
2022/10/29 04:48:19;;;;;;;15.30;8.68;;;13.30;99.90;;;;;;4885162;28;86224;-82
2022/10/29 04:50:45;;;;;;;16.42;8.10;;;13.30;99.90;;;;;;4886166;28;85547;-82
2022/10/29 04:53:10;;;;;;;14.93;7.35;;;13.30;99.90;;;;;;4885717;28;86941;-82
2022/10/29 04:55:37;;;;;;;20.58;8.80;;;13.30;99.90;;;;;;4885738;28;87279;-81
2022/10/29 04:58:04;;;;;;;18.67;8.02;;;13.20;99.90;;;;;;4884667;28;87185;-82
2022/10/29 05:00:31;;;;;;;18.85;8.15;;;13.30;99.90;;;;;;4883868;28;86661;-81
2022/10/29 05:02:57;;;;;;;19.63;7.88;;;13.20;99.90;;;;;;4865273;29;87211;-81
2022/10/29 05:05:23;;;;;;;21.70;9.38;;;13.20;99.90;;;;;;4866610;28;87099;-80
2022/10/29 05:07:54;;;;;;;19.10;8.60;;;13.20;99.90;;;;;;4879005;28;86849;-80
2022/10/29 05:10:20;;;;;;;17.88;8.10;;;13.20;99.90;;;;;;4885334;28;86107;-80
2022/10/29 05:12:45;;;;;;;22.95;8.88;;;13.20;99.90;;;;;;4884315;28;87724;-79
2022/10/29 05:15:11;;;;;;;15.57;7.25;;;13.20;99.90;;;;;;4884131;28;87445;-82
2022/10/29 05:17:40;;;;;;;22.30;8.60;;;13.20;99.90;;;;;;4888435;28;86173;-80
2022/10/29 05:20:06;;;;;;;14.98;7.32;;;13.10;99.90;;;;;;4885332;28;86817;-80
2022/10/29 05:22:31;;;;;;;20.02;9.68;;;13.10;99.90;;;;;;4884114;28;88573;-80
2022/10/29 05:24:57;;;;;;;15.75;7.70;;;13.10;99.90;;;;;;4884812;28;88095;-79
2022/10/29 05:27:23;;;;;;;21.00;8.60;;;13.10;99.90;;;;;;4884742;28;86876;-81
2022/10/29 05:29:48;;;;;;;18.60;6.43;;;13.10;99.90;;;;;;4884062;28;86341;-82
2022/10/29 05:32:14;;;;;;;13.40;5.18;;;13.20;99.90;;;;;;4885184;28;86770;-79
2022/10/29 05:34:39;;;;;;;16.65;5.50;;;13.20;99.90;;;;;;4884501;28;86725;-80
2022/10/29 05:37:05;;;;;;;13.93;4.72;;;13.20;99.90;;;;;;4884947;28;86196;-82
2022/10/29 05:39:31;;;;;;;14.23;5.43;;;13.30;99.90;;;;;;4884852;28;85928;-81
2022/10/29 05:41:56;;;;;;;17.35;5.55;;;13.20;99.90;;;;;;4883650;28;87541;-80
2022/10/29 05:44:22;;;;;;;19.35;5.90;;;13.20;99.90;;;;;;4884323;28;86991;-79
2022/10/29 05:46:48;;;;;;;14.35;5.63;;;13.10;99.90;;;;;;4883874;28;87545;-81
2022/10/29 05:49:14;;;;;;;15.05;5.45;;;13.00;99.90;;;;;;4884501;28;86240;-81
2022/10/29 05:51:40;;;;;;;22.90;6.38;;;13.00;99.90;;;;;;4896505;28;87232;-81
2022/10/29 05:54:05;;;;;;;20.38;5.88;;;13.00;99.90;;;;;;4884107;28;87091;-80
2022/10/29 05:56:31;;;;;;;15.38;5.47;;;13.00;99.90;;;;;;4878634;28;86728;-81
2022/10/29 05:58:57;;;;;;;12.25;5.22;;;12.90;99.90;;;;;;4889119;28;86870;-81
2022/10/29 06:01:22;;;;;;;17.80;5.93;;;12.90;99.90;;;;;;4886356;28;87775;-80
2022/10/29 06:03:48;;;;;;;15.57;4.90;;;12.90;99.90;;;;;;4882867;28;87403;-82
2022/10/29 06:06:14;;;;;;;16.38;4.97;;;12.90;99.90;;;;;;4892645;28;86935;-80
2022/10/29 06:08:39;;;;;;;13.63;4.65;;;12.90;99.90;;;;;;4883378;28;86312;-80
2022/10/29 06:11:05;;;;;;;12.20;4.15;;;12.90;99.90;;;;;;4884257;28;88518;-80
2022/10/29 06:13:31;;;;;;;16.83;3.80;;;13.00;99.90;;;;;;4884467;28;88034;-82
2022/10/29 06:15:58;;;;;;;12.95;4.35;;;13.00;99.90;;;;;;4885344;28;86782;-81
2022/10/29 06:18:27;;;;;;;15.00;4.32;;;13.10;99.90;;;;;;4886211;28;86753;-81
2022/10/29 06:20:59;;;;;;;14.38;4.10;;;13.20;99.90;;;;;;4873199;28;87694;-81
2022/10/29 06:23:26;;;;;;;11.35;4.32;;;13.30;99.90;;;;;;4880970;28;87329;-80
2022/10/29 06:25:52;;;;;;;19.70;5.13;;;13.50;99.90;;;;;;4870541;28;86908;-82
2022/10/29 06:28:18;;;;;;;15.43;5.28;;;13.50;99.90;;;;;;4889280;28;86009;-81
2022/10/29 06:30:50;;;;;;;15.68;5.53;;;13.60;99.90;;;;;;4879402;28;87020;-79
2022/10/29 06:33:19;;;;;;;16.17;5.30;;;13.70;99.90;;;;;;4873934;28;87198;-82
2022/10/29 06:35:46;;;;;;;22.55;6.72;;;13.70;99.90;;;;;;4880133;28;87362;-85
2022/10/29 06:38:12;;;;;;;17.70;5.97;;;13.70;99.90;;;;;;4880715;28;86756;-82
2022/10/29 06:40:38;;;;;;;17.38;6.30;;;13.70;99.90;;;;;;4877238;28;87079;-81
2022/10/29 06:43:05;;;;;;;14.85;6.18;;;13.80;99.90;;;;;;4889308;28;87514;-80
2022/10/29 06:45:32;;;;;;;21.55;6.38;;;13.90;99.90;;;;;;4882911;28;86252;-81
2022/10/29 06:47:58;;;;;;;18.40;6.03;;;14.00;99.90;;;;;;4878389;28;86797;-83
2022/10/29 06:50:24;;;;;;;15.30;5.45;;;14.10;99.90;;;;;;4878116;28;86906;-83
2022/10/29 06:52:57;;;;;;;16.92;6.50;;;14.40;99.90;;;;;;4887060;28;87478;-80
2022/10/29 06:55:23;;;;;;;15.13;5.18;;;14.70;99.90;;;;;;4882546;28;86264;-83
2022/10/29 06:58:05;;;;;;;14.68;5.55;;;14.80;99.90;;;;;;4881436;28;86402;-83
2022/10/29 07:00:31;;;;;;;14.15;5.57;;;15.20;99.90;;;;;;4871679;28;88784;-84
2022/10/29 07:02:58;;;;;;;14.15;5.43;;;16.20;99.90;;;;;;4877185;28;88042;-84
2022/10/29 07:05:24;;;;;;;16.58;5.03;;;16.70;97.90;;;;;;4886118;28;86803;-83
2022/10/29 07:08:00;;;;;;;14.63;4.50;;;17.30;95.10;;;;;;4884636;28;86502;-76
2022/10/29 07:10:28;;;;;;;14.85;4.63;;;17.80;96.30;;;;;;4876622;28;87321;-76
2022/10/29 07:12:54;;;;;;;16.23;5.93;;;17.80;92.80;;;;;;4883378;28;88016;-76
2022/10/29 07:15:20;;;;;;;15.35;4.97;;;18.10;92.20;;;;;;4884783;28;86420;-75
2022/10/29 07:18:02;;;;;;;18.13;5.22;;;18.20;92.40;;;;;;4883406;28;85611;-75
2022/10/29 07:20:30;;;;;;;14.70;7.03;;;18.30;91.70;;;;;;4885647;28;86575;-75
2022/10/29 07:22:56;;;;;;;20.65;6.30;;;18.30;92.20;;;;;;4884750;28;89227;-78
2022/10/29 07:25:22;;;;;;;17.88;6.63;;;18.10;93.10;;;;;;4885590;28;88051;-76
2022/10/29 07:27:48;;;;;;;17.40;6.22;;;17.90;93.10;;;;;;4885763;28;86945;-76
2022/10/29 07:30:14;;;;;;;16.50;6.72;;;17.70;93.60;;;;;;4889835;28;86969;-76
2022/10/29 07:32:40;;;;;;;15.02;6.20;;;17.80;93.60;;;;;;4882082;28;86801;-77
2022/10/29 07:35:06;;;;;;;11.85;4.70;;;18.60;92.40;;;;;;4883251;28;86880;-77
2022/10/29 07:37:31;;;;;;;15.00;5.78;;;19.40;92.00;;;;;;4879268;28;86990;-75
2022/10/29 07:39:57;;;;;;;16.15;6.45;;;20.20;86.80;;;;;;4882483;28;86723;-76
2022/10/29 07:42:23;;;;;;;10.02;5.65;;;20.50;85.40;;;;;;4881642;28;87387;-76
2022/10/29 07:44:49;;;;;;;15.45;5.50;;;21.00;82.60;;;;;;4879764;28;88140;-76
2022/10/29 07:47:14;;;;;;;14.18;5.43;;;21.60;79.10;;;;;;4880594;28;86874;-75
2022/10/29 07:49:40;;;;;;;11.77;5.22;;;21.80;78.20;;;;;;4885144;28;88164;-77
2022/10/29 07:52:06;;;;;;;12.02;5.28;;;21.80;77.20;;;;;;4878385;28;90096;-76
2022/10/29 07:54:31;;;;;;;13.05;5.45;;;21.90;76.60;;;;;;4880430;28;86694;-76
2022/10/29 07:56:57;;;;;;;11.00;5.22;;;22.60;74.10;;;;;;4873705;28;87050;-77
2022/10/29 07:59:22;;;;;;;12.20;4.97;;;22.90;72.60;;;;;;4880318;28;86798;-77
2022/10/29 08:01:48;;;;;;;12.82;5.07;;;23.60;70.70;;;;;;4876282;28;86502;-77
2022/10/29 08:04:14;;;;;;;12.52;4.65;;;24.00;69.60;;;;;;4871316;28;86572;-76
2022/10/29 08:06:40;;;;;;;8.93;4.55;;;23.90;67.60;;;;;;4872300;28;85579;-77
2022/10/29 08:09:05;;;;;;;12.45;4.53;;;24.10;68.30;;;;;;4882961;28;87285;-77
2022/10/29 08:11:32;;;;;;;12.88;5.15;;;24.20;65.30;;;;;;4882742;28;86737;-77
2022/10/29 08:13:58;;;;;;;12.88;5.47;;;24.30;66.20;;;;;;4885412;28;88047;-77
2022/10/29 08:16:24;;;;;;;15.18;5.30;;;24.40;65.00;;;;;;4883245;28;87341;-83
2022/10/29 08:18:50;;;;;;;11.70;5.20;;;24.10;66.60;;;;;;4881079;28;87181;-84
2022/10/29 08:21:16;;;;;;;13.68;4.95;;;25.30;66.30;;;;;;4885034;28;86778;-83
2022/10/29 08:23:43;;;;;;;12.05;4.75;;;25.90;62.70;;;;;;4884633;28;86475;-83
2022/10/29 08:26:09;;;;;;;12.48;5.03;;;26.80;60.10;;;;;;4884413;28;86179;-82
2022/10/29 08:28:35;;;;;;;16.67;5.15;;;27.60;59.20;;;;;;4880543;28;87431;-83
2022/10/29 08:31:00;;;;;;;18.40;4.63;;;28.00;57.20;;;;;;4885191;28;86543;-85
2022/10/29 08:33:26;;;;;;;14.07;4.47;;;28.70;55.70;;;;;;4879550;28;86587;-84
2022/10/29 08:35:53;;;;;;;10.93;4.22;;;28.90;54.90;;;;;;4870127;28;86802;-87
2022/10/29 08:38:22;;;;;;;11.27;4.07;;;29.20;54.50;;;;;;4884425;28;88635;-85
2022/10/29 08:41:25;;;;;;;8.88;3.97;;;29.90;53.90;;;;;;4885554;28;87755;-86
2022/10/29 08:44:03;;;;;;;13.15;4.43;;;29.70;52.00;;;;;;4885628;28;86294;-85
2022/10/29 08:46:34;;;;;;;12.15;4.53;;;30.50;52.50;;;;;;4883970;28;86288;-87
2022/10/29 08:49:03;;;;;;;10.77;4.15;;;30.60;50.90;;;;;;4885641;28;88206;-86
2022/10/29 08:51:42;;;;;;;13.55;4.50;;;31.20;50.90;;;;;;4884660;28;87104;-85
2022/10/29 08:54:13;;;;;;;11.93;4.40;;;31.40;49.70;;;;;;4885499;28;86167;-84
2022/10/29 08:56:51;;;;;;;7.60;4.07;;;31.40;49.80;;;;;;4883372;28;89095;-84
2022/10/29 08:59:20;;;;;;;7.70;3.90;;;31.60;50.00;;;;;;4878326;28;86590;-87
2022/10/29 09:01:46;;;;;;;10.35;3.90;;;31.40;49.70;;;;;;4884784;28;86846;-86
2022/10/29 09:04:34;;;;;;;11.38;3.78;;;31.00;49.90;;;;;;4882718;28;87732;-89
2022/10/29 09:07:28;;;;;;;15.10;4.60;;;29.80;50.50;;;;;;4874301;28;87727;-86
2022/10/29 09:10:26;;;;;;;13.77;4.32;;;28.10;53.40;;;;;;4883832;28;87764;-86
2022/10/29 09:13:17;;;;;;;11.23;3.97;;;27.70;55.40;;;;;;4867880;28;89074;-86
2022/10/29 09:15:52;;;;;;;14.90;4.50;;;26.70;56.80;;;;;;4883279;28;86312;-86
2022/10/29 09:18:27;;;;;;;12.77;4.07;;;26.20;58.10;;;;;;4877412;28;86173;-87
2022/10/29 09:21:08;;;;;;;12.73;5.07;;;26.30;58.80;;;;;;4878625;28;87917;-86
2022/10/29 09:23:59;;;;;;;9.77;4.03;;;26.60;58.50;;;;;;4879558;28;87338;-87
2022/10/29 09:26:35;;;;;;;9.77;4.40;;;26.90;57.60;;;;;;4868835;28;86668;-87
2022/10/29 09:29:10;;;;;;;10.60;4.43;;;28.10;56.10;;;;;;4884176;28;86639;-88
2022/10/29 09:31:41;;;;;;;8.05;3.92;;;29.50;53.80;;;;;;4896181;28;90408;-87
2022/10/29 09:34:16;;;;;;;12.07;3.97;;;30.30;51.80;;;;;;4883381;28;89710;-87
2022/10/29 09:36:45;;;;;;;12.23;4.95;;;30.80;50.60;;;;;;4865774;28;86942;-87
2022/10/29 09:39:20;;;;;;;11.57;5.05;;;31.80;48.90;;;;;;4881628;28;86308;-88
2022/10/29 09:41:47;;;;;;;11.38;4.22;;;31.90;48.80;;;;;;4882305;28;87974;-84
2022/10/29 09:44:22;;;;;;;14.77;4.47;;;32.80;47.90;;;;;;4885264;28;87482;-83
2022/10/29 09:47:05;;;;;;;10.60;5.13;;;33.00;46.70;;;;;;4885323;28;86411;-83
2022/10/29 09:50:09;;;;;;;11.23;4.38;;;32.50;47.60;;;;;;4886010;28;85401;-86
2022/10/29 09:52:40;;;;;;;15.20;4.90;;;32.50;47.50;;;;;;4879408;28;90411;-85
2022/10/29 09:55:10;;;;;;;11.27;4.82;;;32.60;47.60;;;;;;4885376;28;87422;-84
2022/10/29 09:57:38;;;;;;;12.57;4.70;;;32.30;48.20;;;;;;4884149;28;87589;-84
2022/10/29 10:00:12;;;;;;;11.13;4.18;;;32.20;47.80;;;;;;4891617;28;86997;-84
2022/10/29 10:02:48;;;;;;;11.65;4.88;;;32.00;48.20;;;;;;4887320;28;89287;-84
2022/10/29 10:05:14;;;;;;;12.48;4.43;;;31.80;48.40;;;;;;4887585;28;87489;-85
2022/10/29 10:07:40;;;;;;;13.15;4.50;;;31.30;49.00;;;;;;4888156;28;86351;-83
2022/10/29 10:10:21;;;;;;;12.25;4.32;;;30.80;49.70;;;;;;4885557;28;86328;-84
2022/10/29 10:12:49;;;;;;;11.85;5.35;;;30.60;50.50;;;;;;4878748;28;86998;-83
2022/10/29 10:15:14;;;;;;;18.65;5.63;;;30.70;50.10;;;;;;4881754;28;90967;-85
2022/10/29 10:17:58;;;;;;;8.98;4.57;;;30.00;50.90;;;;;;4886716;28;86644;-86
2022/10/29 10:20:27;;;;;;;13.05;4.78;;;29.20;52.40;;;;;;4884053;28;87224;-86
2022/10/29 10:22:52;;;;;;;13.30;4.70;;;28.40;53.60;;;;;;4873849;28;88737;-85
2022/10/29 10:25:36;;;;;;;13.05;4.50;;;27.60;55.30;;;;;;4887635;28;88424;-85
2022/10/29 10:28:19;;;;;;;9.25;3.70;;;26.80;57.00;;;;;;4880209;28;86222;-85
2022/10/29 10:31:03;;;;;;;10.25;4.10;;;26.10;58.80;;;;;;4886585;28;86373;-84
2022/10/29 10:33:30;;;;;;;11.32;4.72;;;25.30;60.40;;;;;;4885086;28;86889;-85
2022/10/29 10:36:07;;;;;;;17.27;5.47;;;24.80;61.30;;;;;;4885561;28;87520;-85
2022/10/29 10:38:42;;;;;;;10.93;4.82;;;24.40;63.10;;;;;;4886689;28;86273;-84
2022/10/29 10:41:11;;;;;;;12.80;5.18;;;23.90;65.20;;;;;;4875796;28;86355;-85
2022/10/29 10:43:40;;;;;;;13.65;5.43;;;23.50;66.00;;;;;;4879236;28;87339;-86
2022/10/29 10:46:16;;;;;;;10.10;4.57;;;23.20;67.80;;;;;;4885618;28;87402;-85
2022/10/29 10:48:42;;;;;;;14.98;4.88;;;22.90;68.50;;;;;;4883923;28;87557;-86
2022/10/29 10:51:24;;;;;;;18.50;5.18;;;22.60;69.70;;;;;;4889100;28;86341;-87
2022/10/29 10:53:50;;;;;;;14.80;5.07;;;22.40;71.40;;;;;;4883972;28;86850;-86
2022/10/29 10:56:21;;;;;;;11.98;4.65;;;22.20;71.20;;;;;;4885031;28;86447;-83
2022/10/29 10:59:00;;;;;;;15.85;4.18;;;22.10;72.50;;;;;;4878186;28;87301;-84
2022/10/29 11:01:48;;;;;;;10.95;5.13;;;22.10;72.80;;;;;;4874708;28;86488;-86
2022/10/29 11:04:23;;;;;;;14.32;4.57;;;22.00;72.70;;;;;;4893287;28;89624;-84
2022/10/29 11:06:52;;;;;;;10.70;4.35;;;21.90;72.50;;;;;;4879295;28;87455;-84
2022/10/29 11:09:38;;;;;;;11.85;4.45;;;21.80;73.40;;;;;;4879651;28;87087;-83
2022/10/29 11:12:07;;;;;;;12.35;6.30;;;21.60;74.60;;;;;;4882797;28;86711;-86
2022/10/29 11:14:44;;;;;;;15.63;5.53;;;21.60;74.90;;;;;;4883007;28;87557;-86
2022/10/29 11:17:30;;;;;;;10.32;5.13;;;21.50;75.30;;;;;;4882630;28;88344;-84
2022/10/29 11:20:05;;;;;;;13.48;5.65;;;21.20;76.50;;;;;;4879637;28;86679;-84
2022/10/29 11:23:04;;;;;;;16.42;5.65;;;21.20;77.40;;;;;;4871369;28;86383;-84
2022/10/29 11:25:43;;;;;;;13.05;5.30;;;21.10;78.10;;;;;;4880667;28;86868;-84
2022/10/29 11:28:18;;;;;;;15.02;5.82;;;20.90;78.40;;;;;;4886768;28;87013;-84
2022/10/29 11:30:50;;;;;;;14.27;5.78;;;20.90;79.00;;;;;;4891988;28;86122;-84
2022/10/29 11:33:44;;;;;;;10.27;4.95;;;20.90;79.30;;;;;;4887551;28;86166;-84
2022/10/29 11:36:22;;;;;;;10.00;5.55;;;20.80;79.30;;;;;;4879272;28;87706;-87
2022/10/29 11:39:15;;;;;;;10.43;5.63;;;20.90;79.70;;;;;;4875448;28;87152;-83
2022/10/29 11:41:58;;;;;;;14.45;6.13;;;20.80;80.20;;;;;;4881941;28;87214;-85
2022/10/29 11:44:25;;;;;;;9.80;5.70;;;20.60;80.80;;;;;;4875836;28;87744;-92
2022/10/29 11:47:04;;;;;;;10.90;5.95;;;20.50;80.60;;;;;;4885627;28;87103;-91
2022/10/29 11:49:45;;;;;;;13.13;5.15;;;20.50;81.60;;;;;;4876485;28;90592;-88
2022/10/29 11:52:19;;;;;;;11.65;5.68;;;20.60;81.20;;;;;;4880169;28;86422;-88
2022/10/29 11:55:06;;;;;;;10.00;6.35;;;20.60;81.70;;;;;;4881090;28;86771;-88
2022/10/29 11:57:31;;;;;;;11.02;6.35;;;20.50;79.30;;;;;;4901726;23;90778;-71
2022/10/29 12:00:16;;;;;;;10.50;6.80;;;20.40;80.60;;;;;;4889736;28;86936;-72
2022/10/29 12:03:15;;;;;;;11.70;5.93;;;20.50;80.30;;;;;;4880441;28;86993;-75
2022/10/29 12:05:55;;;;;;;11.02;6.35;;;20.50;81.40;;;;;;4874502;28;86818;-71
2022/10/29 12:08:42;;;;;;;11.95;6.20;;;20.50;81.00;;;;;;4873036;28;88307;-72
2022/10/29 12:11:48;;;;;;;12.02;6.65;;;20.40;81.10;;;;;;4870509;28;87990;-71
2022/10/29 12:14:19;;;;;;;18.45;6.43;;;20.40;81.70;;;;;;4867705;28;87021;-69
2022/10/29 12:16:51;;;;;;;17.30;7.05;;;20.40;82.10;;;;;;4870146;28;86715;-71
2022/10/29 12:19:41;;;;;;;14.23;6.78;;;20.40;81.20;;;;;;4871873;28;86802;-71
2022/10/29 12:22:26;;;;;;;17.85;7.47;;;20.40;80.00;;;;;;4872209;28;87245;-71
2022/10/29 12:25:20;;;;;;;21.15;7.28;;;20.40;79.60;;;;;;4875947;28;87640;-72
2022/10/29 12:28:04;;;;;;;13.45;6.72;;;20.50;80.10;;;;;;4873440;28;85658;-71
2022/10/29 12:30:36;;;;;;;17.77;8.20;;;20.50;78.90;;;;;;4875295;28;87495;-71
2022/10/29 12:33:48;;;;;;;12.65;6.65;;;20.50;79.50;;;;;;4878773;28;86851;-71
2022/10/29 12:36:26;;;;;;;15.50;6.10;;;20.60;78.40;;;;;;4850353;29;87738;-71
2022/10/29 12:38:55;;;;;;;16.67;6.13;;;20.50;77.60;;;;;;4874240;28;86246;-71
2022/10/29 12:41:46;;;;;;;18.48;5.82;;;20.60;77.50;;;;;;4875893;28;87599;-72
2022/10/29 12:45:16;;;;;;;13.57;4.82;;;20.60;75.20;;;;;;4873189;28;87481;-71
2022/10/29 12:48:14;;;;;;;16.95;5.10;;;20.60;73.50;;;;;;4848394;28;86708;-71
2022/10/29 12:51:10;;;;;;;14.13;5.40;;;20.60;76.20;;;;;;4849464;28;87312;-70
2022/10/29 12:54:04;;;;;;;13.55;6.15;;;20.50;76.10;;;;;;4874986;28;87310;-72
2022/10/29 12:56:30;;;;;;;13.35;4.65;;;20.50;74.50;;;;;;4858724;28;86767;-71
2022/10/29 12:58:58;;;;;;;12.90;5.22;;;20.50;76.70;;;;;;4876011;28;87017;-71
2022/10/29 13:01:29;;;;;;;12.15;5.03;;;20.60;77.30;;;;;;4877592;28;86379;-72
2022/10/29 13:03:55;;;;;;;15.38;4.55;;;20.60;77.90;;;;;;4867872;28;87740;-72
2022/10/29 13:06:42;;;;;;;16.30;5.03;;;20.60;78.20;;;;;;4876514;28;87365;-72
2022/10/29 13:09:19;;;;;;;15.07;5.15;;;20.60;77.90;;;;;;4876633;28;86844;-71
2022/10/29 13:11:56;;;;;;;16.23;5.65;;;20.60;77.50;;;;;;4878229;28;87037;-72
2022/10/29 13:14:34;;;;;;;11.60;5.63;;;20.50;77.00;;;;;;4878445;28;87141;-72
2022/10/29 13:17:02;;;;;;;14.45;4.88;;;20.60;76.90;;;;;;4875409;28;87239;-73
2022/10/29 13:19:48;;;;;;;10.60;4.72;;;20.60;76.80;;;;;;4878203;28;87226;-72
2022/10/29 13:22:14;;;;;;;13.90;5.43;;;20.60;76.60;;;;;;4877235;28;85945;-72
2022/10/29 13:24:40;;;;;;;17.90;5.70;;;20.60;75.40;;;;;;4877820;28;87461;-72
2022/10/29 13:27:20;;;;;;;16.75;5.55;;;20.60;75.70;;;;;;4877584;28;86935;-73
2022/10/29 13:29:49;;;;;;;12.02;5.63;;;20.60;75.40;;;;;;4873161;28;88251;-72
2022/10/29 13:32:37;;;;;;;18.90;6.10;;;20.60;76.10;;;;;;4880911;28;86896;-72
2022/10/29 13:35:17;;;;;;;11.45;6.20;;;20.60;76.80;;;;;;4873241;28;86558;-71
2022/10/29 13:37:45;;;;;;;15.30;6.10;;;20.70;78.20;;;;;;4881550;28;86872;-72
2022/10/29 13:40:29;;;;;;;17.00;5.47;;;20.70;78.40;;;;;;4881777;28;86761;-72
2022/10/29 13:43:16;;;;;;;17.30;7.05;;;20.70;77.70;;;;;;4873480;28;87063;-72
2022/10/29 13:45:47;;;;;;;14.25;5.93;;;20.60;78.30;;;;;;4882763;28;86741;-72
2022/10/29 13:48:24;;;;;;;14.88;6.47;;;20.50;78.40;;;;;;4883760;28;87074;-71
2022/10/29 13:50:53;;;;;;;15.70;6.85;;;20.50;79.10;;;;;;4883127;28;87220;-72
2022/10/29 13:53:21;;;;;;;;;;;20.40;80.20;;;;;;4883579;28;87282;-72
2022/10/29 13:55:49;;;;;;;16.95;7.03;;;20.30;81.30;;;;;;4884408;28;88160;-71
2022/10/29 13:58:30;;;;;;;17.42;7.25;;;20.20;81.60;;;;;;4882866;28;87907;-72
2022/10/29 14:00:56;;;;;;;14.60;7.35;;;20.00;82.10;;;;;;4877564;28;86694;-71
2022/10/29 14:03:54;;;;;;;16.83;7.72;;;19.90;82.20;;;;;;4871099;28;86611;-71
2022/10/29 14:06:30;;;;;;;14.10;6.85;;;19.90;82.90;;;;;;4883320;28;86658;-72
2022/10/29 14:09:18;;;;;;;14.88;7.13;;;19.80;83.10;;;;;;4874234;28;86852;-73
2022/10/29 14:11:53;;;;;;;13.10;6.85;;;19.80;83.30;;;;;;4884011;28;87078;-71
2022/10/29 14:14:32;;;;;;;14.57;6.78;;;19.70;83.40;;;;;;4884227;28;86010;-71
2022/10/29 14:17:12;;;;;;;16.42;5.50;;;19.60;83.50;;;;;;4880641;28;88413;-71
2022/10/29 14:19:51;;;;;;;15.57;7.18;;;19.70;82.80;;;;;;4882090;28;86799;-70
2022/10/29 14:22:29;;;;;;;15.10;5.97;;;19.60;82.10;;;;;;4880379;28;87188;-72
2022/10/29 14:24:55;;;;;;;20.75;5.88;;;19.60;81.70;;;;;;4882407;28;86327;-70
2022/10/29 14:27:21;;;;;;;15.45;5.60;;;19.60;81.30;;;;;;4880920;28;87240;-72
2022/10/29 14:29:47;;;;;;;23.20;5.55;;;19.70;80.80;;;;;;4881988;28;86938;-72
2022/10/29 14:32:18;;;;;;;10.82;4.78;;;19.70;80.80;;;;;;4874536;28;87007;-71
2022/10/29 14:34:50;;;;;;;14.30;5.13;;;19.70;80.50;;;;;;4880610;28;86275;-70
2022/10/29 14:37:27;;;;;;;15.52;4.78;;;19.70;81.10;;;;;;4875009;28;86690;-70
2022/10/29 14:39:56;;;;;;;12.30;4.70;;;19.70;81.10;;;;;;4880551;28;86292;-71
2022/10/29 14:42:36;;;;;;;15.02;5.55;;;19.60;81.20;;;;;;4881168;28;86707;-71
2022/10/29 14:45:06;;;;;;;16.52;5.35;;;19.60;81.00;;;;;;4882880;28;86308;-71
2022/10/29 14:47:35;;;;;;;15.35;5.72;;;19.70;82.60;;;;;;4880878;28;90445;-70
2022/10/29 14:50:05;;;;;;;15.68;4.32;;;19.70;81.60;;;;;;4882616;28;88399;-71
2022/10/29 14:52:41;;;;;;;16.55;4.45;;;19.70;81.80;;;;;;4881177;28;86799;-71
2022/10/29 14:55:29;;;;;;;13.20;4.60;;;19.70;81.60;;;;;;4876123;28;87233;-70
2022/10/29 14:58:06;;;;;;;17.83;5.00;;;19.70;81.20;;;;;;4880511;28;87346;-70
2022/10/29 15:00:35;;;;;;;17.55;5.60;;;19.70;81.80;;;;;;4878962;28;87534;-70
2022/10/29 15:03:02;;;;;;;19.27;5.30;;;19.70;81.60;;;;;;4879842;28;86659;-70
2022/10/29 15:05:29;;;;;;;16.90;5.28;;;19.60;81.60;;;;;;4882301;28;86148;-71
2022/10/29 15:08:04;;;;;;;17.80;4.78;;;19.60;81.50;;;;;;4880530;28;88294;-72
2022/10/29 15:10:31;;;;;;;14.23;4.50;;;19.50;81.80;;;;;;4881397;28;87169;-71
2022/10/29 15:12:56;;;;;;;9.18;4.00;;;19.40;81.10;;;;;;4879352;28;87263;-71
2022/10/29 15:15:25;;;;;;;12.23;4.78;;;19.30;81.50;;;;;;4873422;28;87154;-70
2022/10/29 15:18:21;;;;;;;13.13;5.43;;;19.20;81.10;;;;;;4874543;28;87282;-71
2022/10/29 15:20:47;;;;;;;11.30;5.35;;;19.10;81.20;;;;;;4873485;28;87297;-72
2022/10/29 15:23:18;;;;;;;19.50;5.18;;;19.00;81.20;;;;;;4874053;28;86866;-71
2022/10/29 15:25:46;;;;;;;16.63;5.28;;;19.00;81.30;;;;;;4867000;28;86920;-71
2022/10/29 15:28:39;;;;;;;13.10;4.82;;;18.90;81.40;;;;;;4873558;28;87520;-71
2022/10/29 15:31:06;;;;;;;14.25;5.05;;;18.80;81.50;;;;;;4868125;28;87354;-72
2022/10/29 15:33:34;;;;;;;14.48;5.15;;;18.70;82.60;;;;;;4875946;28;86846;-70
2022/10/29 15:36:04;;;;;;;11.40;5.38;;;18.70;83.50;;;;;;4879036;28;87476;-71
2022/10/29 15:38:30;;;;;;;16.50;5.88;;;18.50;84.00;;;;;;4876400;28;89746;-70
2022/10/29 15:41:08;;;;;;;18.05;5.45;;;18.50;84.50;;;;;;4878308;28;87865;-71
2022/10/29 15:43:46;;;;;;;19.13;6.30;;;18.40;84.70;;;;;;4878713;28;86963;-71
2022/10/29 15:46:23;;;;;;;14.82;5.95;;;18.30;84.60;;;;;;4878858;28;86260;-71
2022/10/29 15:48:49;;;;;;;15.40;6.07;;;18.10;84.70;;;;;;4876895;28;87353;-72
2022/10/29 15:51:15;;;;;;;15.02;6.40;;;18.10;85.30;;;;;;4878645;28;87181;-71
2022/10/29 15:53:41;;;;;;;18.00;5.30;;;17.90;85.50;;;;;;4877641;28;86751;-72
2022/10/29 15:56:13;;;;;;;15.38;5.97;;;17.90;85.40;;;;;;4879223;28;86968;-71
2022/10/29 15:58:39;;;;;;;12.85;5.97;;;17.90;86.00;;;;;;4871393;28;87305;-70
2022/10/29 16:01:07;;;;;;;12.88;5.50;;;17.80;86.20;;;;;;4878110;28;86738;-70
2022/10/29 16:03:35;;;;;;;18.45;6.53;;;17.70;86.30;;;;;;4877671;28;87237;-69